Terminal Aerodrome Forecast
Issued by NWS

Home | Current Version | Previous Version | Graphics & Text | Print | Product List | Glossary On
Versions: 1 2 3 4 5 6 7 8 9 10 11 12 13 14 15 16 17
038
FTUS43 KIWX 150520
TAFSBN
TAF
KSBN 150520Z 1506/1606 16011KT P6SM OVC080
     FM151000 18012KT P6SM VCSH OVC060
     FM151500 19013G20KT 4SM -SHRA BR OVC015
     FM152000 26011KT P6SM OVC015=

USA.gov is the U.S. government's official web portal to all federal, state and local government web resources and services.